Time;durP1;ratioP1;P1;durP2;ratioP2;P2;SDS_P1;SDS_P2;PMS_P1;PMS_P2;Temp;Humidity;BMP_temperature;BMP_pressure;BME280_temperature;BME280_humidity;BME280_pressure;Samples;Min_cycle;Max_cycle;Signal;HPM_P1;HPM_P2
2023/03/02 00:01:39;;;;;;;29.25;16.95;;;;;;;2.84;58.84;96732.72;5003217;28;20116;-84
2023/03/02 00:04:12;;;;;;;29.98;16.75;;;;;;;2.90;59.03;96721.06;5003055;28;20060;-83
2023/03/02 00:06:40;;;;;;;26.00;17.67;;;;;;;2.99;58.81;96727.19;5026836;23;20046;-75
2023/03/02 00:09:08;;;;;;;29.33;18.35;;;;;;;2.97;58.06;96726.50;5012573;28;20049;-75
2023/03/02 00:11:38;;;;;;;30.20;19.15;;;;;;;2.92;58.89;96729.47;5013100;28;20132;-75
2023/03/02 00:14:05;;;;;;;31.17;19.00;;;;;;;2.89;58.38;96735.72;5013190;28;20144;-75
2023/03/02 00:16:33;;;;;;;32.30;19.23;;;;;;;2.85;58.36;96734.34;5012810;28;20103;-75
2023/03/02 00:19:01;;;;;;;31.52;19.40;;;;;;;2.84;58.62;96732.72;5012170;28;20137;-75
2023/03/02 00:21:30;;;;;;;29.73;17.55;;;;;;;2.80;58.35;96731.34;5013301;28;20061;-75
2023/03/02 00:23:58;;;;;;;29.25;19.02;;;;;;;2.77;58.47;96736.75;5013132;28;20100;-75
2023/03/02 00:26:25;;;;;;;29.95;18.67;;;;;;;2.74;58.83;96726.72;5013184;28;20053;-75
2023/03/02 00:28:54;;;;;;;29.55;18.92;;;;;;;2.72;58.88;96733.75;5011865;28;20067;-75
2023/03/02 00:31:22;;;;;;;31.40;18.08;;;;;;;2.66;58.74;96729.09;5012636;28;20056;-75
2023/03/02 00:33:50;;;;;;;31.15;18.38;;;;;;;2.61;58.83;96723.53;5012888;28;20496;-75
2023/03/02 00:36:19;;;;;;;32.17;18.63;;;;;;;2.59;59.08;96717.69;5012271;28;20511;-75
2023/03/02 00:38:47;;;;;;;33.03;18.77;;;;;;;2.57;59.03;96719.59;5012722;28;20053;-75
2023/03/02 00:41:16;;;;;;;32.75;18.95;;;;;;;2.53;59.79;96715.63;5016187;28;20046;-75
2023/03/02 00:43:43;;;;;;;30.30;18.00;;;;;;;2.58;59.60;96718.63;5016901;28;20054;-75
2023/03/02 00:46:14;;;;;;;31.90;18.33;;;;;;;2.60;59.38;96715.00;5032166;28;20069;-74
2023/03/02 00:48:42;;;;;;;29.98;18.02;;;;;;;2.60;59.38;96727.88;5038717;28;20049;-75
2023/03/02 00:51:10;;;;;;;29.30;17.13;;;;;;;2.62;59.82;96717.44;5038899;28;20077;-74
2023/03/02 00:53:38;;;;;;;30.77;17.33;;;;;;;2.64;59.31;96712.97;5038283;28;20049;-75
2023/03/02 00:56:07;;;;;;;26.98;17.30;;;;;;;2.63;59.49;96709.59;5024002;28;20127;-75
2023/03/02 00:58:35;;;;;;;31.45;18.58;;;;;;;2.62;59.13;96715.69;5015253;28;20109;-75
2023/03/02 01:01:06;;;;;;;29.73;17.33;;;;;;;2.60;59.92;96711.59;5015687;28;20041;-74
2023/03/02 01:03:35;;;;;;;32.75;16.80;;;;;;;2.60;59.24;96711.59;5015962;28;20117;-75
2023/03/02 01:06:05;;;;;;;34.28;19.20;;;;;;;2.56;59.51;96708.47;5015597;28;20245;-75
2023/03/02 01:08:32;;;;;;;31.45;19.10;;;;;;;2.55;59.63;96706.03;5014347;28;20052;-75
2023/03/02 01:11:01;;;;;;;29.63;17.70;;;;;;;2.52;59.36;96706.28;5015760;28;20042;-75
2023/03/02 01:13:28;;;;;;;30.25;18.30;;;;;;;2.47;59.47;96688.63;5016055;28;20394;-75
2023/03/02 01:16:03;;;;;;;30.70;18.77;;;;;;;2.41;59.97;96697.69;5015736;28;20566;-75
2023/03/02 01:18:31;;;;;;;33.83;18.48;;;;;;;2.37;59.82;96690.38;5014991;28;20057;-75
2023/03/02 01:21:05;;;;;;;29.90;17.17;;;;;;;2.32;60.25;96683.03;5015862;28;20137;-75
2023/03/02 01:23:32;;;;;;;31.02;18.63;;;;;;;2.33;59.72;96682.06;5015597;28;20052;-75
2023/03/02 01:26:00;;;;;;;31.00;18.38;;;;;;;2.36;60.31;96681.84;5015435;28;20050;-75
2023/03/02 01:28:28;;;;;;;34.58;19.10;;;;;;;2.36;60.18;96684.41;5014549;28;20057;-75
2023/03/02 01:30:55;;;;;;;28.08;16.25;;;;;;;2.33;60.28;96674.34;5015769;28;20147;-75
2023/03/02 01:33:23;;;;;;;30.92;18.48;;;;;;;2.36;60.03;96678.41;5015373;28;20056;-75
2023/03/02 01:35:50;;;;;;;33.28;19.92;;;;;;;2.34;59.77;96672.59;5017656;28;20062;-75
2023/03/02 01:38:19;;;;;;;28.63;17.67;;;;;;;2.33;60.44;96669.19;5023495;28;20050;-75
2023/03/02 01:40:47;;;;;;;31.23;18.58;;;;;;;2.33;60.42;96670.97;5021271;28;20196;-75
2023/03/02 01:43:16;;;;;;;27.83;17.92;;;;;;;2.33;60.41;96673.53;5015798;28;20140;-75
2023/03/02 01:45:47;;;;;;;31.48;18.92;;;;;;;2.37;60.79;96669.78;5015275;28;20048;-75
2023/03/02 01:48:18;;;;;;;29.05;18.45;;;;;;;2.34;60.33;96663.13;5014107;28;20470;-75
2023/03/02 01:50:45;;;;;;;30.58;17.88;;;;;;;2.29;60.34;96654.94;5015338;28;20057;-75
2023/03/02 01:53:15;;;;;;;29.90;18.23;;;;;;;2.25;60.28;96659.56;5015422;28;20112;-75
2023/03/02 01:55:45;;;;;;;32.85;18.65;;;;;;;2.22;60.37;96656.41;5014907;28;20108;-75
2023/03/02 01:58:15;;;;;;;27.52;17.98;;;;;;;2.18;60.48;96650.69;5014192;28;20045;-75
2023/03/02 02:00:44;;;;;;;29.35;18.17;;;;;;;2.12;60.54;96647.81;5014627;28;20092;-75
2023/03/02 02:03:19;;;;;;;29.83;16.55;;;;;;;2.08;60.93;96646.44;5014847;28;20069;-75
2023/03/02 02:05:58;;;;;;;31.67;17.40;;;;;;;2.08;61.46;96637.00;5015202;28;20050;-75
2023/03/02 02:08:26;;;;;;;31.05;18.20;;;;;;;2.08;61.02;96631.84;5013948;28;20434;-75
2023/03/02 02:10:56;;;;;;;29.23;17.90;;;;;;;2.11;61.28;96633.34;5014282;28;20113;-75
2023/03/02 02:13:24;;;;;;;30.02;17.20;;;;;;;2.15;60.84;96632.16;5014307;28;20049;-75
2023/03/02 02:15:51;;;;;;;27.35;17.08;;;;;;;2.17;60.63;96627.69;5014688;28;20049;-75
2023/03/02 02:18:19;;;;;;;29.58;17.08;;;;;;;2.17;60.66;96625.13;5014954;28;20050;-75
2023/03/02 02:20:48;;;;;;;32.50;18.30;;;;;;;2.13;60.93;96631.47;5015530;28;20050;-75
2023/03/02 02:23:26;;;;;;;31.90;17.80;;;;;;;2.09;61.46;96619.78;5015162;28;20512;-75
2023/03/02 02:26:11;;;;;;;28.75;16.48;;;;;;;2.06;61.98;96618.28;5014468;28;20045;-75
2023/03/02 02:28:43;;;;;;;28.60;17.67;;;;;;;2.08;61.24;96615.56;5013625;28;20060;-75
2023/03/02 02:31:15;;;;;;;31.52;18.90;;;;;;;2.10;61.68;96609.38;5014191;28;20124;-75
2023/03/02 02:33:46;;;;;;;29.85;17.13;;;;;;;2.09;61.41;96612.88;5014896;28;20054;-75
2023/03/02 02:36:18;;;;;;;28.75;17.50;;;;;;;2.10;61.81;96609.38;5014408;28;20050;-75
2023/03/02 02:38:48;;;;;;;23.98;13.35;;;;;;;2.16;61.86;96613.97;5013860;28;20060;-75
2023/03/02 02:41:22;;;;;;;25.83;15.48;;;;;;;2.19;61.75;96607.78;5013738;28;20092;-75
2023/03/02 02:43:50;;;;;;;28.08;16.58;;;;;;;2.19;61.63;96603.44;5013551;28;20053;-75
2023/03/02 02:46:18;;;;;;;27.42;16.27;;;;;;;2.21;61.42;96596.41;5013592;28;20591;-75
2023/03/02 02:48:45;;;;;;;29.65;17.80;;;;;;;2.23;61.27;96609.97;5013168;28;20076;-75
2023/03/02 02:51:18;;;;;;;30.67;17.50;;;;;;;2.22;61.46;96605.75;5013791;28;20065;-75
2023/03/02 02:53:49;;;;;;;29.00;16.25;;;;;;;2.18;61.61;96604.38;5013815;28;20449;-75
2023/03/02 02:56:19;;;;;;;26.42;16.58;;;;;;;2.16;61.36;96592.59;5013674;28;20145;-75
2023/03/02 02:58:49;;;;;;;33.75;17.52;;;;;;;2.11;61.55;96602.47;5013180;28;20406;-75
2023/03/02 03:01:24;;;;;;;31.10;17.08;;;;;;;2.05;61.69;96602.00;5013051;28;20080;-75
2023/03/02 03:03:53;;;;;;;30.25;17.95;;;;;;;2.00;61.69;96609.31;5014104;28;20112;-75
2023/03/02 03:06:25;;;;;;;27.13;15.73;;;;;;;2.04;61.85;96607.31;5013325;28;20490;-75
2023/03/02 03:09:00;;;;;;;26.40;16.42;;;;;;;2.02;62.36;96610.00;5012909;28;20089;-75
2023/03/02 03:11:31;;;;;;;27.45;16.75;;;;;;;1.99;62.20;96602.56;5013601;28;20426;-75
2023/03/02 03:14:04;;;;;;;31.42;18.17;;;;;;;2.01;62.14;96599.81;5013547;28;20050;-75
2023/03/02 03:16:33;;;;;;;29.77;16.75;;;;;;;2.01;61.80;96597.25;5012999;28;20405;-75
2023/03/02 03:19:06;;;;;;;28.50;15.65;;;;;;;2.02;62.38;96604.84;5012581;28;20054;-75
2023/03/02 03:21:34;;;;;;;31.00;17.02;;;;;;;2.00;61.89;96609.31;5013020;28;20046;-75
2023/03/02 03:24:02;;;;;;;28.45;16.85;;;;;;;1.98;61.86;96600.91;5013098;28;20057;-75
2023/03/02 03:26:31;;;;;;;25.73;15.32;;;;;;;1.98;62.36;96600.91;4999060;28;20080;-75
2023/03/02 03:28:59;;;;;;;27.40;16.95;;;;;;;2.01;61.76;96603.25;4992718;28;20050;-75
2023/03/02 03:31:28;;;;;;;31.55;16.65;;;;;;;1.99;61.91;96597.41;4994452;28;20161;-75
2023/03/02 03:33:59;;;;;;;32.35;18.67;;;;;;;1.94;61.97;96599.53;4993741;28;20058;-75
2023/03/02 03:36:27;;;;;;;25.80;16.20;;;;;;;1.89;62.10;96601.69;4993687;28;20133;-75
2023/03/02 03:38:56;;;;;;;30.15;17.85;;;;;;;1.85;62.13;96610.59;4992982;28;20050;-75
2023/03/02 03:41:23;;;;;;;29.13;17.83;;;;;;;1.80;62.06;96607.59;4992340;28;20054;-75
2023/03/02 03:43:52;;;;;;;29.92;17.40;;;;;;;1.75;62.58;96607.13;4994092;28;20050;-75
2023/03/02 03:46:20;;;;;;;32.40;17.98;;;;;;;1.74;62.31;96610.66;4993847;28;20046;-75
2023/03/02 03:48:48;;;;;;;33.13;17.83;;;;;;;1.71;62.58;96598.06;4993216;28;20072;-75
2023/03/02 03:51:16;;;;;;;33.45;17.13;;;;;;;1.70;62.75;96611.84;4993489;28;20515;-75
2023/03/02 03:53:44;;;;;;;34.65;18.73;;;;;;;1.72;62.49;96607.41;4993997;28;20054;-75
2023/03/02 03:56:12;;;;;;;29.92;17.73;;;;;;;1.69;62.59;96602.53;4993943;28;20050;-75
2023/03/02 03:58:39;;;;;;;31.00;17.58;;;;;;;1.66;62.73;96606.13;4993013;28;20141;-75
2023/03/02 04:01:08;;;;;;;30.30;17.77;;;;;;;1.65;62.74;96595.03;4993927;28;20058;-75
2023/03/02 04:03:36;;;;;;;32.05;18.80;;;;;;;1.63;62.83;96603.81;4993831;28;20058;-75
2023/03/02 04:06:05;;;;;;;30.05;17.30;;;;;;;1.61;62.95;96603.94;4993333;28;20493;-75
2023/03/02 04:08:32;;;;;;;28.30;16.58;;;;;;;1.59;63.15;96610.97;4992910;28;20059;-75
2023/03/02 04:11:00;;;;;;;30.75;16.23;;;;;;;1.63;62.93;96609.78;4993586;28;20605;-74
2023/03/02 04:13:27;;;;;;;30.10;17.73;;;;;;;1.67;63.04;96612.13;4994546;28;20141;-75
2023/03/02 04:15:55;;;;;;;31.73;17.30;;;;;;;1.67;62.98;96606.97;4997469;28;20587;-75
2023/03/02 04:18:24;;;;;;;26.05;15.98;;;;;;;1.64;63.37;96613.19;4996592;28;20073;-75
2023/03/02 04:20:51;;;;;;;33.67;17.83;;;;;;;1.62;62.96;96612.50;5002262;28;20050;-75
2023/03/02 04:23:19;;;;;;;28.48;17.25;;;;;;;1.58;63.16;96614.50;5004274;28;20070;-75
2023/03/02 04:25:46;;;;;;;27.00;16.52;;;;;;;1.59;63.33;96612.72;4998755;28;20492;-75
2023/03/02 04:28:15;;;;;;;31.40;18.73;;;;;;;1.59;63.50;96612.72;4996620;28;20058;-75
2023/03/02 04:30:44;;;;;;;31.58;16.27;;;;;;;1.61;63.37;96613.41;4997454;28;20073;-75
2023/03/02 04:33:11;;;;;;;28.80;17.33;;;;;;;1.63;63.31;96606.41;4997087;28;20054;-75
2023/03/02 04:35:40;;;;;;;34.33;17.20;;;;;;;1.61;63.21;96603.94;4997692;28;20054;-75
2023/03/02 04:38:08;;;;;;;29.48;16.17;;;;;;;1.59;63.16;96605.81;4996072;28;20053;-75
2023/03/02 04:40:35;;;;;;;26.52;15.70;;;;;;;1.56;63.56;96606.09;4997245;28;20046;-75
2023/03/02 04:43:03;;;;;;;31.10;18.38;;;;;;;1.55;63.27;96611.34;4996961;28;20086;-74
2023/03/02 04:45:30;;;;;;;33.85;16.98;;;;;;;1.53;63.70;96608.91;4997026;28;20056;-75
2023/03/02 04:47:58;;;;;;;34.97;17.42;;;;;;;1.55;63.80;96606.19;4996013;28;20074;-75
2023/03/02 04:50:26;;;;;;;27.73;16.48;;;;;;;1.58;63.69;96608.53;4996541;28;20500;-75
2023/03/02 04:52:55;;;;;;;29.02;16.95;;;;;;;1.59;63.66;96610.97;4996890;28;20114;-75
2023/03/02 04:55:26;;;;;;;26.05;16.02;;;;;;;1.61;63.75;96603.13;4996819;28;20112;-75
2023/03/02 04:57:53;;;;;;;27.85;15.95;;;;;;;1.62;63.75;96604.78;4995894;28;20137;-75
2023/03/02 05:00:22;;;;;;;27.95;15.63;;;;;;;1.68;63.58;96604.25;4996650;28;20056;-75
2023/03/02 05:02:49;;;;;;;27.55;16.35;;;;;;;1.73;63.48;96606.44;4996581;28;20508;-75
2023/03/02 05:05:19;;;;;;;28.15;16.70;;;;;;;1.72;63.58;96604.81;4996604;28;20055;-75
2023/03/02 05:07:47;;;;;;;29.52;16.85;;;;;;;1.72;63.50;96594.53;4995554;28;20046;-75
2023/03/02 05:10:18;;;;;;;28.13;16.10;;;;;;;1.74;63.62;96598.63;4996008;28;20510;-75
2023/03/02 05:12:56;;;;;;;29.30;16.55;;;;;;;1.75;63.18;96594.28;4995896;28;20538;-75
2023/03/02 05:15:26;;;;;;;26.27;15.18;;;;;;;1.74;63.55;96592.66;4996401;28;20524;-75
2023/03/02 05:17:55;;;;;;;26.90;15.40;;;;;;;1.75;63.75;96596.84;4995120;28;20054;-75
2023/03/02 05:20:26;;;;;;;28.27;16.08;;;;;;;1.77;63.67;96597.53;4995827;28;20046;-75
2023/03/02 05:22:55;;;;;;;27.08;14.90;;;;;;;1.81;63.36;96598.91;4995770;28;20069;-75
2023/03/02 05:25:25;;;;;;;27.15;15.10;;;;;;;1.81;63.70;96598.91;4995565;28;20505;-75
2023/03/02 05:27:52;;;;;;;28.20;15.45;;;;;;;1.81;63.65;96597.16;4995151;28;20116;-75
2023/03/02 05:30:21;;;;;;;24.40;14.63;;;;;;;1.84;64.59;96596.91;4995823;28;20043;-75
2023/03/02 05:32:50;;;;;;;25.98;14.73;;;;;;;1.89;64.33;96599.09;4995778;28;20061;-75
2023/03/02 05:35:18;;;;;;;27.77;16.23;;;;;;;1.92;63.51;96590.31;4995687;28;20082;-75
2023/03/02 05:37:45;;;;;;;27.02;16.35;;;;;;;1.89;63.65;96596.53;4995219;28;20054;-75
2023/03/02 05:40:15;;;;;;;28.65;16.33;;;;;;;1.87;63.77;96593.28;4995767;28;20133;-75
2023/03/02 05:42:44;;;;;;;29.20;16.13;;;;;;;1.90;64.24;96595.56;4995481;28;20105;-75
2023/03/02 05:45:18;;;;;;;29.33;16.15;;;;;;;1.92;63.61;96603.19;4995737;28;20142;-75
2023/03/02 05:47:46;;;;;;;29.38;14.93;;;;;;;1.92;63.86;96595.47;4994897;28;20580;-74
2023/03/02 05:50:14;;;;;;;26.33;15.20;;;;;;;1.92;63.64;96601.41;4994861;28;20448;-75
2023/03/02 05:52:44;;;;;;;25.20;14.95;;;;;;;1.91;63.58;96604.94;4995523;28;20100;-75
2023/03/02 05:55:12;;;;;;;28.10;15.35;;;;;;;1.89;63.37;96600.88;4995405;28;20054;-75
2023/03/02 05:57:40;;;;;;;29.38;15.00;;;;;;;1.88;63.37;96609.50;4995398;28;20061;-75
2023/03/02 06:00:12;;;;;;;31.98;14.75;;;;;;;1.87;63.54;96611.28;4994798;28;20141;-75
2023/03/02 06:02:40;;;;;;;28.35;15.90;;;;;;;1.87;63.38;96605.31;4995507;28;20496;-75
2023/03/02 06:05:11;;;;;;;27.33;14.80;;;;;;;1.88;63.46;96605.22;4995868;28;20043;-74
2023/03/02 06:07:38;;;;;;;31.20;17.17;;;;;;;1.86;63.43;96596.81;5023518;23;20471;-76
2023/03/02 06:10:07;;;;;;;30.35;15.23;;;;;;;1.85;63.30;96608.81;5012590;28;20053;-76
2023/03/02 06:12:35;;;;;;;27.38;15.48;;;;;;;1.87;63.67;96616.41;5009671;28;20086;-77
2023/03/02 06:15:04;;;;;;;32.20;16.15;;;;;;;1.93;63.82;96613.34;4999809;28;20050;-78
2023/03/02 06:17:33;;;;;;;28.35;15.15;;;;;;;1.95;63.52;96613.22;5004202;28;20054;-77
2023/03/02 06:20:00;;;;;;;24.80;14.10;;;;;;;1.93;63.78;96615.91;4991447;28;20043;-77
2023/03/02 06:22:28;;;;;;;25.65;14.27;;;;;;;1.93;63.91;96618.50;4984559;28;20118;-77
2023/03/02 06:24:55;;;;;;;31.15;14.82;;;;;;;1.95;63.81;96616.59;4998373;28;20070;-77
2023/03/02 06:27:23;;;;;;;23.38;14.32;;;;;;;1.94;63.56;96620.09;4989077;28;20518;-77
2023/03/02 06:29:51;;;;;;;27.27;15.27;;;;;;;1.93;63.52;96623.63;4988991;28;20054;-77
2023/03/02 06:32:18;;;;;;;24.83;14.50;;;;;;;1.88;63.60;96619.81;4994932;28;20504;-77
2023/03/02 06:34:48;;;;;;;25.88;15.18;;;;;;;1.89;63.97;96621.44;4993371;28;20061;-77
2023/03/02 06:37:16;;;;;;;26.83;15.95;;;;;;;1.91;63.96;96625.53;4988088;28;20529;-80
2023/03/02 06:39:43;;;;;;;27.50;14.57;;;;;;;1.99;63.93;96624.88;4981531;28;20133;-78
2023/03/02 06:42:11;;;;;;;26.02;14.95;;;;;;;2.06;63.77;96626.81;4988102;28;20043;-79
2023/03/02 06:44:39;;;;;;;29.45;15.25;;;;;;;2.11;63.53;96633.34;4989385;28;20058;-78
2023/03/02 06:47:06;;;;;;;29.02;15.55;;;;;;;2.09;64.29;96637.78;4993855;28;20074;-78
2023/03/02 06:49:34;;;;;;;27.50;15.90;;;;;;;2.14;64.49;96635.66;4986818;28;20137;-77
2023/03/02 06:52:05;;;;;;;26.65;14.65;;;;;;;2.23;64.30;96638.28;4991341;28;20061;-78
2023/03/02 06:54:33;;;;;;;28.27;16.00;;;;;;;2.33;64.06;96640.06;4993943;28;20062;-77
2023/03/02 06:57:01;;;;;;;28.50;15.20;;;;;;;2.41;64.53;96630.75;4992602;28;20054;-78
2023/03/02 06:59:28;;;;;;;27.58;15.48;;;;;;;2.59;65.28;96645.59;4992198;28;20046;-77
2023/03/02 07:01:56;;;;;;;27.25;15.02;;;;;;;2.77;63.94;96632.91;4979722;28;20057;-77
2023/03/02 07:04:23;;;;;;;36.20;15.85;;;;;;;2.85;63.19;96644.16;4979205;28;20421;-77
2023/03/02 07:06:51;;;;;;;26.08;16.55;;;;;;;2.91;62.72;96645.41;4982451;28;20054;-79
2023/03/02 07:09:20;;;;;;;27.05;16.00;;;;;;;2.98;62.75;96656.00;4987636;28;20043;-77
2023/03/02 07:11:49;;;;;;;27.27;16.35;;;;;;;3.06;62.33;96650.97;4986821;28;20421;-77
2023/03/02 07:14:16;;;;;;;26.02;15.65;;;;;;;3.13;62.13;96644.34;4989078;28;20493;-77
2023/03/02 07:16:44;;;;;;;24.17;14.88;;;;;;;3.25;62.07;96648.41;4986678;28;20520;-77
2023/03/02 07:19:12;;;;;;;26.52;15.98;;;;;;;3.42;62.23;96664.19;4993954;28;20042;-78
2023/03/02 07:21:40;;;;;;;22.90;14.38;;;;;;;3.62;61.48;96655.47;4991041;28;20549;-77
2023/03/02 07:24:08;;;;;;;24.83;14.27;;;;;;;3.78;60.75;96654.09;4985873;28;20134;-77
2023/03/02 07:26:37;;;;;;;23.75;14.23;;;;;;;3.95;60.47;96662.91;4975723;28;20051;-77
2023/03/02 07:29:05;;;;;;;24.77;14.52;;;;;;;4.10;59.92;96657.16;4982079;28;20501;-77
2023/03/02 07:31:32;;;;;;;25.88;15.43;;;;;;;4.20;59.83;96664.06;4979562;28;20062;-77
2023/03/02 07:34:00;;;;;;;27.63;15.73;;;;;;;4.34;59.47;96661.84;4974752;28;20055;-78
2023/03/02 07:36:28;;;;;;;23.52;14.98;;;;;;;4.63;59.00;96665.28;4991190;28;20074;-77
2023/03/02 07:38:56;;;;;;;24.20;14.27;;;;;;;4.97;57.80;96668.13;4973936;28;20054;-78
2023/03/02 07:41:23;;;;;;;24.77;14.80;;;;;;;5.49;56.94;96668.31;4981382;28;20108;-77
2023/03/02 07:43:52;;;;;;;23.95;14.70;;;;;;;6.64;54.62;96678.66;4976686;28;20047;-77
2023/03/02 07:46:20;;;;;;;26.88;14.98;;;;;;;7.13;52.23;96676.28;4988682;28;20057;-78
2023/03/02 07:48:48;;;;;;;21.05;14.23;;;;;;;7.63;51.40;96670.16;5014222;28;20141;-77
2023/03/02 07:51:15;;;;;;;24.70;14.80;;;;;;;8.34;49.45;96673.06;5015290;28;20047;-78
2023/03/02 07:53:43;;;;;;;21.83;14.15;;;;;;;8.35;49.63;96677.25;4997057;28;20050;-77
2023/03/02 07:56:11;;;;;;;23.33;15.43;;;;;;;8.62;49.13;96681.31;4982285;28;20051;-78
2023/03/02 07:58:39;;;;;;;24.42;14.93;;;;;;;8.91;48.05;96675.50;4993644;28;20051;-78
2023/03/02 08:01:08;;;;;;;24.95;14.82;;;;;;;9.47;46.79;96678.00;4984826;28;20047;-78
2023/03/02 08:03:36;;;;;;;25.40;14.13;;;;;;;10.34;45.27;96675.00;4991243;28;20054;-78
2023/03/02 08:06:06;;;;;;;22.08;14.13;;;;;;;11.42;42.81;96681.41;5012999;28;20079;-78
2023/03/02 08:08:33;;;;;;;21.90;14.45;;;;;;;12.28;40.99;96678.78;4984892;28;20047;-78
2023/03/02 08:11:04;;;;;;;23.80;14.32;;;;;;;13.00;38.80;96676.78;4994316;28;20050;-77
2023/03/02 08:13:32;;;;;;;21.60;14.00;;;;;;;13.64;38.49;96675.59;4994623;28;20520;-78
2023/03/02 08:16:01;;;;;;;20.27;13.75;;;;;;;14.03;37.15;96674.03;4992021;28;20050;-78
2023/03/02 08:18:30;;;;;;;22.05;14.90;;;;;;;14.43;36.37;96672.19;4987326;28;20055;-78
2023/03/02 08:20:59;;;;;;;20.05;13.82;;;;;;;15.00;36.06;96680.38;4991959;28;20089;-77
2023/03/02 08:23:26;;;;;;;21.95;15.95;;;;;;;15.39;34.92;96681.22;4988658;28;20058;-78
2023/03/02 08:25:55;;;;;;;19.33;14.02;;;;;;;15.90;33.95;96676.91;4995791;28;20062;-78
2023/03/02 08:28:23;;;;;;;20.13;13.82;;;;;;;16.30;32.95;96679.22;4985346;28;20062;-78
2023/03/02 08:30:57;;;;;;;19.25;13.88;;;;;;;16.50;31.76;96672.97;4986526;28;20061;-77
2023/03/02 08:33:26;;;;;;;25.00;14.77;;;;;;;16.71;32.26;96674.38;4980643;28;20058;-78
2023/03/02 08:35:56;;;;;;;23.02;13.45;;;;;;;16.79;31.61;96672.25;4995624;28;20496;-79
2023/03/02 08:38:24;;;;;;;22.95;13.93;;;;;;;16.84;31.91;96661.09;5010494;28;20065;-77
2023/03/02 08:40:52;;;;;;;21.75;14.32;;;;;;;16.89;31.84;96656.75;5013653;28;20046;-77
2023/03/02 08:43:22;;;;;;;20.83;14.88;;;;;;;16.79;31.68;96656.47;5007297;28;20077;-78
2023/03/02 08:45:52;;;;;;;22.33;14.95;;;;;;;16.67;31.93;96659.00;4989483;28;20674;-78
2023/03/02 08:48:19;;;;;;;22.67;14.45;;;;;;;16.66;31.89;96646.03;4993078;28;20063;-78
2023/03/02 08:50:56;;;;;;;17.88;13.77;;;;;;;16.67;31.30;96645.81;4983421;28;20050;-78
2023/03/02 08:53:24;;;;;;;21.95;14.82;;;;;;;16.71;32.10;96646.22;4977946;28;20051;-78
2023/03/02 08:55:52;;;;;;;20.02;13.45;;;;;;;16.60;32.31;96641.66;4995050;28;20057;-78
2023/03/02 08:58:20;;;;;;;17.83;13.55;;;;;;;16.50;33.14;96634.25;4992440;28;20065;-78
2023/03/02 09:00:47;;;;;;;20.48;13.43;;;;;;;16.61;32.71;96653.81;4993421;28;20050;-78
2023/03/02 09:03:15;;;;;;;14.73;11.50;;;;;;;16.73;32.51;96640.72;4992423;28;20481;-79
2023/03/02 09:05:43;;;;;;;16.77;11.95;;;;;;;16.75;32.47;96628.94;4992971;28;20050;-78
2023/03/02 09:08:13;;;;;;;16.48;11.82;;;;;;;16.65;32.35;96633.91;4995125;28;20439;-79
2023/03/02 09:10:40;;;;;;;16.83;10.45;;;;;;;16.66;32.65;96624.97;4981982;28;20501;-78
2023/03/02 09:13:08;;;;;;;18.67;11.35;;;;;;;16.63;33.04;96622.78;4987222;28;20679;-78
2023/03/02 09:15:36;;;;;;;17.40;10.82;;;;;;;16.73;32.56;96630.19;4990245;28;20113;-79
2023/03/02 09:18:04;;;;;;;17.45;11.57;;;;;;;16.73;32.43;96619.66;4995770;28;20669;-79
2023/03/02 09:20:32;;;;;;;16.58;11.07;;;;;;;16.73;33.35;96631.00;4988148;28;20054;-78
2023/03/02 09:23:00;;;;;;;13.30;10.07;;;;;;;16.81;32.56;96627.28;4993441;28;20038;-78
2023/03/02 09:25:29;;;;;;;13.32;9.63;;;;;;;16.79;32.16;96627.47;5000414;28;20043;-78
2023/03/02 09:27:57;;;;;;;14.60;9.75;;;;;;;16.72;32.28;96624.09;5005857;28;20055;-79
2023/03/02 09:30:24;;;;;;;13.25;10.25;;;;;;;16.72;32.45;96624.09;4996838;28;20062;-78
2023/03/02 09:32:52;;;;;;;13.85;10.13;;;;;;;16.74;32.65;96626.53;4989711;28;20050;-79
2023/03/02 09:35:19;;;;;;;14.13;10.15;;;;;;;16.61;33.07;96627.47;4978000;28;20090;-78
2023/03/02 09:37:47;;;;;;;19.45;11.55;;;;;;;16.58;32.67;96628.72;4995561;28;20058;-79
2023/03/02 09:40:19;;;;;;;15.50;11.48;;;;;;;16.66;32.28;96632.88;4996230;28;20523;-78
2023/03/02 09:43:16;;;;;;;15.60;9.90;;;;;;;16.77;31.50;96636.59;4996476;28;20078;-79
2023/03/02 09:45:56;;;;;;;12.38;9.88;;;;;;;16.83;31.62;96639.19;4990094;28;20047;-80
2023/03/02 09:48:40;;;;;;;15.10;10.05;;;;;;;16.90;31.27;96636.47;4993293;28;20085;-79
2023/03/02 09:51:20;;;;;;;13.40;9.45;;;;;;;16.95;31.68;96652.44;4994869;28;20058;-78
2023/03/02 09:53:58;;;;;;;16.38;9.73;;;;;;;16.81;31.25;96643.06;4987949;28;20043;-79
2023/03/02 09:56:26;;;;;;;17.52;9.65;;;;;;;16.77;32.16;96636.59;4986336;28;20054;-82
2023/03/02 09:59:01;;;;;;;11.65;9.55;;;;;;;16.84;31.46;96638.19;4993807;28;20046;-82
2023/03/02 10:01:35;;;;;;;11.98;9.35;;;;;;;16.92;31.59;96641.53;4992266;28;20141;-79
2023/03/02 10:04:13;;;;;;;13.02;8.60;;;;;;;17.01;31.41;96643.66;4984941;28;20054;-78
2023/03/02 10:06:40;;;;;;;16.83;9.77;;;;;;;17.03;31.56;96640.78;4996392;28;20046;-79
2023/03/02 10:09:09;;;;;;;13.70;8.68;;;;;;;16.92;31.70;96644.19;5002427;28;20052;-79
2023/03/02 10:11:50;;;;;;;11.48;9.07;;;;;;;16.84;31.83;96640.81;4992746;28;20113;-78
2023/03/02 10:14:24;;;;;;;12.43;9.13;;;;;;;17.00;31.40;96638.59;4989958;28;20042;-78
2023/03/02 10:16:59;;;;;;;14.50;9.68;;;;;;;17.19;31.38;96642.84;4979277;28;20051;-79
2023/03/02 10:19:31;;;;;;;13.95;9.30;;;;;;;17.14;31.25;96637.41;4982550;28;20054;-80
2023/03/02 10:22:09;;;;;;;11.93;9.77;;;;;;;17.27;31.27;96641.72;4994034;28;20042;-79
2023/03/02 10:24:43;;;;;;;12.77;8.82;;;;;;;17.61;31.42;96636.78;4994695;28;20054;-80
2023/03/02 10:27:17;;;;;;;12.13;9.25;;;;;;;17.97;30.66;96635.84;4985273;28;20089;-79
2023/03/02 10:29:58;;;;;;;17.52;11.82;;;;;;;18.30;30.22;96639.78;4989436;28;20628;-80
2023/03/02 10:32:30;;;;;;;13.82;10.32;;;;;;;18.55;29.94;96630.81;4980160;28;20053;-80
2023/03/02 10:35:01;;;;;;;15.27;10.35;;;;;;;18.77;29.95;96639.75;4988206;28;20039;-79
2023/03/02 10:37:30;;;;;;;16.70;9.25;;;;;;;18.94;29.43;96631.94;4986201;28;20065;-80
2023/03/02 10:39:58;;;;;;;13.93;8.82;;;;;;;19.16;29.36;96631.31;4993177;28;20043;-80
2023/03/02 10:42:29;;;;;;;15.88;9.15;;;;;;;19.33;28.97;96627.66;4979761;28;20066;-80
2023/03/02 10:45:07;;;;;;;15.90;9.18;;;;;;;19.54;29.01;96628.00;4976774;28;20047;-80
2023/03/02 10:47:35;;;;;;;15.18;10.07;;;;;;;19.64;28.36;96632.69;4985667;28;20054;-80
2023/03/02 10:50:03;;;;;;;14.10;9.50;;;;;;;19.67;28.20;96621.63;4984601;28;20068;-79
2023/03/02 10:52:30;;;;;;;16.15;8.98;;;;;;;19.69;28.14;96623.00;4984841;28;20051;-80
2023/03/02 10:55:02;;;;;;;13.88;8.93;;;;;;;19.70;28.03;96619.34;4994339;28;20109;-80
2023/03/02 10:57:36;;;;;;;14.02;8.63;;;;;;;19.78;28.01;96619.97;4985536;28;20071;-79
2023/03/02 11:00:16;;;;;;;11.80;8.77;;;;;;;19.90;28.05;96620.72;4993811;28;20575;-79
2023/03/02 11:02:52;;;;;;;13.70;9.70;;;;;;;20.08;27.54;96623.13;4990840;28;20800;-80
2023/03/02 11:05:25;;;;;;;12.48;8.63;;;;;;;20.14;27.22;96616.06;4983964;28;20057;-80
2023/03/02 11:07:54;;;;;;;18.13;10.27;;;;;;;20.11;27.43;96601.44;4989770;28;20137;-79
2023/03/02 11:10:25;;;;;;;13.82;9.13;;;;;;;20.16;27.80;96606.03;4987905;28;20059;-79
2023/03/02 11:12:53;;;;;;;11.75;8.90;;;;;;;20.38;27.51;96603.44;4991463;28;20061;-80
2023/03/02 11:15:40;;;;;;;15.57;9.40;;;;;;;20.48;27.28;96608.84;4987578;28;20408;-80
2023/03/02 11:18:16;;;;;;;16.23;9.73;;;;;;;20.64;26.81;96604.59;4976937;28;20074;-80
2023/03/02 11:20:49;;;;;;;15.07;8.70;;;;;;;20.95;26.86;96605.75;4981393;28;20057;-80
2023/03/02 11:23:23;;;;;;;;;;;;;;;21.31;27.07;96603.50;4974469;28;20053;-80
2023/03/02 11:25:54;;;;;;;11.40;7.93;;;;;;;21.46;26.02;96605.53;4988150;28;20387;-79
2023/03/02 11:28:32;;;;;;;12.60;9.10;;;;;;;21.36;25.60;96605.38;4986035;28;20049;-80
2023/03/02 11:31:05;;;;;;;12.32;7.75;;;;;;;21.48;26.62;96605.28;4990442;28;20125;-77
2023/03/02 11:33:37;;;;;;;12.90;8.23;;;;;;;21.85;26.37;96612.50;5014371;28;20050;-80
2023/03/02 11:36:12;;;;;;;11.45;7.93;;;;;;;22.19;25.30;96603.22;5011849;28;20054;-80